sensor_id;sensor_type;location;lat;lon;timestamp;temperature;humidity
16140;DHT22;8175;49.326;12.690;2023-05-10T00:00:37;8.30;99.90
16140;DHT22;8175;49.326;12.690;2023-05-10T00:03:03;8.40;99.90
16140;DHT22;8175;49.326;12.690;2023-05-10T00:05:30;8.60;99.90
16140;DHT22;8175;49.326;12.690;2023-05-10T00:07:56;8.60;99.90
16140;DHT22;8175;49.326;12.690;2023-05-10T00:10:22;8.90;99.90
16140;DHT22;8175;49.326;12.690;2023-05-10T00:12:47;8.90;99.90
16140;DHT22;8175;49.326;12.690;2023-05-10T00:15:13;9.10;99.90
16140;DHT22;8175;49.326;12.690;2023-05-10T00:17:39;9.00;99.90
16140;DHT22;8175;49.326;12.690;2023-05-10T00:20:05;9.00;99.90
16140;DHT22;8175;49.326;12.690;2023-05-10T00:22:31;8.80;99.90
16140;DHT22;8175;49.326;12.690;2023-05-10T00:24:58;8.80;99.90
16140;DHT22;8175;49.326;12.690;2023-05-10T00:27:23;8.80;99.90
16140;DHT22;8175;49.326;12.690;2023-05-10T00:29:49;8.90;99.90
16140;DHT22;8175;49.326;12.690;2023-05-10T00:32:15;8.80;99.90
16140;DHT22;8175;49.326;12.690;2023-05-10T00:34:40;8.80;99.90
16140;DHT22;8175;49.326;12.690;2023-05-10T00:37:06;8.70;99.90
16140;DHT22;8175;49.326;12.690;2023-05-10T00:39:31;8.60;99.90
16140;DHT22;8175;49.326;12.690;2023-05-10T00:41:57;8.60;99.90
16140;DHT22;8175;49.326;12.690;2023-05-10T00:44:23;8.50;99.90
16140;DHT22;8175;49.326;12.690;2023-05-10T00:46:49;8.40;99.90
16140;DHT22;8175;49.326;12.690;2023-05-10T00:49:15;8.30;99.90
16140;DHT22;8175;49.326;12.690;2023-05-10T00:51:41;8.30;99.90
16140;DHT22;8175;49.326;12.690;2023-05-10T00:54:10;8.30;99.90
16140;DHT22;8175;49.326;12.690;2023-05-10T00:56:37;8.30;99.90
16140;DHT22;8175;49.326;12.690;2023-05-10T00:59:03;8.40;99.90
16140;DHT22;8175;49.326;12.690;2023-05-10T01:01:28;8.50;99.90
16140;DHT22;8175;49.326;12.690;2023-05-10T01:03:55;8.50;99.90
16140;DHT22;8175;49.326;12.690;2023-05-10T01:06:21;8.50;99.90
16140;DHT22;8175;49.326;12.690;2023-05-10T01:08:47;8.50;99.90
16140;DHT22;8175;49.326;12.690;2023-05-10T01:11:13;8.60;99.90
16140;DHT22;8175;49.326;12.690;2023-05-10T01:13:41;8.70;99.90
16140;DHT22;8175;49.326;12.690;2023-05-10T01:16:08;8.70;99.90
16140;DHT22;8175;49.326;12.690;2023-05-10T01:18:38;8.70;99.90
16140;DHT22;8175;49.326;12.690;2023-05-10T01:24:18;8.60;99.90
16140;DHT22;8175;49.326;12.690;2023-05-10T01:32:08;8.50;99.90
16140;DHT22;8175;49.326;12.690;2023-05-10T01:34:54;8.50;99.90
16140;DHT22;8175;49.326;12.690;2023-05-10T01:37:45;8.60;99.90
16140;DHT22;8175;49.326;12.690;2023-05-10T01:43:04;8.50;99.90
16140;DHT22;8175;49.326;12.690;2023-05-10T01:45:39;8.50;99.90
16140;DHT22;8175;49.326;12.690;2023-05-10T01:48:09;8.50;99.90
16140;DHT22;8175;49.326;12.690;2023-05-10T01:50:37;8.60;99.90
16140;DHT22;8175;49.326;12.690;2023-05-10T01:53:06;8.60;99.90
16140;DHT22;8175;49.326;12.690;2023-05-10T01:55:36;8.60;99.90
16140;DHT22;8175;49.326;12.690;2023-05-10T01:58:09;8.60;99.90
16140;DHT22;8175;49.326;12.690;2023-05-10T02:00:35;8.60;99.90
16140;DHT22;8175;49.326;12.690;2023-05-10T02:03:06;8.70;99.90
16140;DHT22;8175;49.326;12.690;2023-05-10T02:05:33;8.70;99.90
16140;DHT22;8175;49.326;12.690;2023-05-10T02:08:01;8.80;99.90
16140;DHT22;8175;49.326;12.690;2023-05-10T05:13:16;10.10;99.90
16140;DHT22;8175;49.326;12.690;2023-05-10T05:15:41;10.10;99.90
16140;DHT22;8175;49.326;12.690;2023-05-10T05:18:07;10.10;99.90
16140;DHT22;8175;49.326;12.690;2023-05-10T05:20:33;10.10;99.90
16140;DHT22;8175;49.326;12.690;2023-05-10T05:22:59;10.10;99.90
16140;DHT22;8175;49.326;12.690;2023-05-10T05:25:25;10.10;99.90
16140;DHT22;8175;49.326;12.690;2023-05-10T05:27:51;10.10;99.90
16140;DHT22;8175;49.326;12.690;2023-05-10T05:30:16;10.10;99.90
16140;DHT22;8175;49.326;12.690;2023-05-10T05:32:42;10.10;99.90
16140;DHT22;8175;49.326;12.690;2023-05-10T05:35:08;10.00;99.90
16140;DHT22;8175;49.326;12.690;2023-05-10T05:37:33;10.00;99.90
16140;DHT22;8175;49.326;12.690;2023-05-10T05:39:59;10.00;99.90
16140;DHT22;8175;49.326;12.690;2023-05-10T05:42:27;10.00;99.90
16140;DHT22;8175;49.326;12.690;2023-05-10T05:44:52;9.90;99.90
16140;DHT22;8175;49.326;12.690;2023-05-10T05:47:18;10.00;99.90
16140;DHT22;8175;49.326;12.690;2023-05-10T05:49:43;10.00;99.90
16140;DHT22;8175;49.326;12.690;2023-05-10T05:52:11;10.00;99.90
16140;DHT22;8175;49.326;12.690;2023-05-10T05:54:37;10.10;99.90
16140;DHT22;8175;49.326;12.690;2023-05-10T05:57:02;10.20;99.90
16140;DHT22;8175;49.326;12.690;2023-05-10T05:59:28;10.40;99.90
16140;DHT22;8175;49.326;12.690;2023-05-10T06:01:54;10.40;99.90
16140;DHT22;8175;49.326;12.690;2023-05-10T06:04:20;10.50;99.90
16140;DHT22;8175;49.326;12.690;2023-05-10T06:06:45;10.50;99.90
16140;DHT22;8175;49.326;12.690;2023-05-10T06:09:11;10.50;99.90
16140;DHT22;8175;49.326;12.690;2023-05-10T06:11:37;10.60;99.90
16140;DHT22;8175;49.326;12.690;2023-05-10T06:14:03;10.60;99.90
16140;DHT22;8175;49.326;12.690;2023-05-10T06:16:34;10.60;99.90
16140;DHT22;8175;49.326;12.690;2023-05-10T06:18:59;10.50;99.90
16140;DHT22;8175;49.326;12.690;2023-05-10T06:21:25;10.50;99.90
16140;DHT22;8175;49.326;12.690;2023-05-10T06:23:51;10.40;99.90
16140;DHT22;8175;49.326;12.690;2023-05-10T06:26:16;10.40;99.90
16140;DHT22;8175;49.326;12.690;2023-05-10T06:28:42;10.30;99.90
16140;DHT22;8175;49.326;12.690;2023-05-10T06:31:08;10.30;99.90
16140;DHT22;8175;49.326;12.690;2023-05-10T06:33:33;10.20;99.90
16140;DHT22;8175;49.326;12.690;2023-05-10T06:35:59;10.20;99.90
16140;DHT22;8175;49.326;12.690;2023-05-10T06:38:25;10.10;99.90
16140;DHT22;8175;49.326;12.690;2023-05-10T06:40:51;10.00;99.90
16140;DHT22;8175;49.326;12.690;2023-05-10T06:43:17;10.00;99.90
16140;DHT22;8175;49.326;12.690;2023-05-10T06:45:43;10.10;99.90
16140;DHT22;8175;49.326;12.690;2023-05-10T06:48:08;10.30;99.90
16140;DHT22;8175;49.326;12.690;2023-05-10T06:50:34;10.20;99.90
16140;DHT22;8175;49.326;12.690;2023-05-10T06:53:00;10.10;99.90
16140;DHT22;8175;49.326;12.690;2023-05-10T06:55:27;10.00;99.90
16140;DHT22;8175;49.326;12.690;2023-05-10T06:57:53;9.80;99.90
16140;DHT22;8175;49.326;12.690;2023-05-10T07:00:19;9.70;99.90
16140;DHT22;8175;49.326;12.690;2023-05-10T07:02:45;9.60;99.90
16140;DHT22;8175;49.326;12.690;2023-05-10T07:05:11;9.60;99.90
16140;DHT22;8175;49.326;12.690;2023-05-10T07:07:37;9.50;99.90
16140;DHT22;8175;49.326;12.690;2023-05-10T07:10:03;9.50;99.90
16140;DHT22;8175;49.326;12.690;2023-05-10T07:12:28;9.40;99.90
16140;DHT22;8175;49.326;12.690;2023-05-10T07:14:54;9.50;99.90
16140;DHT22;8175;49.326;12.690;2023-05-10T07:17:20;9.60;99.90
16140;DHT22;8175;49.326;12.690;2023-05-10T07:19:46;9.50;99.90
16140;DHT22;8175;49.326;12.690;2023-05-10T07:22:11;9.60;99.90
16140;DHT22;8175;49.326;12.690;2023-05-10T07:24:37;9.60;99.90
16140;DHT22;8175;49.326;12.690;2023-05-10T07:27:03;9.60;99.90
16140;DHT22;8175;49.326;12.690;2023-05-10T07:29:29;9.70;99.90
16140;DHT22;8175;49.326;12.690;2023-05-10T07:31:55;9.90;99.90
16140;DHT22;8175;49.326;12.690;2023-05-10T07:34:20;10.10;99.90
16140;DHT22;8175;49.326;12.690;2023-05-10T07:36:46;10.20;99.90
16140;DHT22;8175;49.326;12.690;2023-05-10T07:39:12;10.30;99.90
16140;DHT22;8175;49.326;12.690;2023-05-10T07:41:38;10.40;99.90
16140;DHT22;8175;49.326;12.690;2023-05-10T07:44:04;10.30;99.90
16140;DHT22;8175;49.326;12.690;2023-05-10T07:46:30;10.30;99.90
16140;DHT22;8175;49.326;12.690;2023-05-10T07:48:55;10.30;99.90
16140;DHT22;8175;49.326;12.690;2023-05-10T07:51:21;10.30;99.90
16140;DHT22;8175;49.326;12.690;2023-05-10T07:53:47;10.20;99.90
16140;DHT22;8175;49.326;12.690;2023-05-10T07:56:27;10.10;99.90
16140;DHT22;8175;49.326;12.690;2023-05-10T07:59:04;10.20;99.90
16140;DHT22;8175;49.326;12.690;2023-05-10T08:01:32;10.20;99.90
16140;DHT22;8175;49.326;12.690;2023-05-10T08:03:58;10.20;99.90
16140;DHT22;8175;49.326;12.690;2023-05-10T08:06:24;10.10;99.90
16140;DHT22;8175;49.326;12.690;2023-05-10T08:08:51;10.20;99.90
16140;DHT22;8175;49.326;12.690;2023-05-10T08:11:19;10.30;99.90
16140;DHT22;8175;49.326;12.690;2023-05-10T08:13:46;10.30;99.90
16140;DHT22;8175;49.326;12.690;2023-05-10T08:16:12;10.20;99.90
16140;DHT22;8175;49.326;12.690;2023-05-10T08:18:38;10.30;99.90
16140;DHT22;8175;49.326;12.690;2023-05-10T08:21:04;10.20;99.90
16140;DHT22;8175;49.326;12.690;2023-05-10T08:23:30;10.10;99.90
16140;DHT22;8175;49.326;12.690;2023-05-10T08:25:55;10.00;99.90
16140;DHT22;8175;49.326;12.690;2023-05-10T08:28:21;10.00;99.90
16140;DHT22;8175;49.326;12.690;2023-05-10T08:30:47;10.10;99.90
16140;DHT22;8175;49.326;12.690;2023-05-10T08:33:12;10.20;99.90
16140;DHT22;8175;49.326;12.690;2023-05-10T08:35:38;10.30;99.90
16140;DHT22;8175;49.326;12.690;2023-05-10T08:38:03;10.30;99.90
16140;DHT22;8175;49.326;12.690;2023-05-10T08:40:29;10.40;99.90
16140;DHT22;8175;49.326;12.690;2023-05-10T08:43:05;10.50;99.90
16140;DHT22;8175;49.326;12.690;2023-05-10T08:45:33;10.70;99.90
16140;DHT22;8175;49.326;12.690;2023-05-10T08:48:02;10.70;99.90
16140;DHT22;8175;49.326;12.690;2023-05-10T08:50:31;10.80;99.90
16140;DHT22;8175;49.326;12.690;2023-05-10T08:52:59;10.80;99.90
16140;DHT22;8175;49.326;12.690;2023-05-10T08:55:25;11.00;99.90
16140;DHT22;8175;49.326;12.690;2023-05-10T08:57:51;10.90;99.90
16140;DHT22;8175;49.326;12.690;2023-05-10T09:00:18;11.20;99.90
16140;DHT22;8175;49.326;12.690;2023-05-10T09:02:44;11.60;99.90
16140;DHT22;8175;49.326;12.690;2023-05-10T09:05:12;11.70;99.90
16140;DHT22;8175;49.326;12.690;2023-05-10T09:07:37;11.70;99.90
16140;DHT22;8175;49.326;12.690;2023-05-10T09:10:04;11.70;99.90
16140;DHT22;8175;49.326;12.690;2023-05-10T09:12:30;11.60;99.90
16140;DHT22;8175;49.326;12.690;2023-05-10T09:14:58;11.60;99.90
16140;DHT22;8175;49.326;12.690;2023-05-10T09:17:25;11.50;99.90
16140;DHT22;8175;49.326;12.690;2023-05-10T09:19:58;11.50;99.90
16140;DHT22;8175;49.326;12.690;2023-05-10T09:22:24;11.60;99.90
16140;DHT22;8175;49.326;12.690;2023-05-10T09:25:07;11.80;99.90
16140;DHT22;8175;49.326;12.690;2023-05-10T09:27:33;11.90;99.90
16140;DHT22;8175;49.326;12.690;2023-05-10T09:29:59;12.10;99.90
16140;DHT22;8175;49.326;12.690;2023-05-10T09:32:37;12.00;99.90
16140;DHT22;8175;49.326;12.690;2023-05-10T09:35:23;12.00;99.90
16140;DHT22;8175;49.326;12.690;2023-05-10T09:37:51;12.10;99.90
16140;DHT22;8175;49.326;12.690;2023-05-10T09:40:19;12.10;99.90
16140;DHT22;8175;49.326;12.690;2023-05-10T09:43:02;12.50;99.90
16140;DHT22;8175;49.326;12.690;2023-05-10T09:45:32;12.70;99.90
16140;DHT22;8175;49.326;12.690;2023-05-10T09:47:59;12.90;99.90
16140;DHT22;8175;49.326;12.690;2023-05-10T09:50:26;12.90;99.90
16140;DHT22;8175;49.326;12.690;2023-05-10T09:55:21;12.70;99.90
16140;DHT22;8175;49.326;12.690;2023-05-10T09:57:48;12.70;99.90
16140;DHT22;8175;49.326;12.690;2023-05-10T10:00:20;12.90;99.90
16140;DHT22;8175;49.326;12.690;2023-05-10T10:02:53;12.90;99.90
16140;DHT22;8175;49.326;12.690;2023-05-10T10:05:19;13.00;99.90
16140;DHT22;8175;49.326;12.690;2023-05-10T10:07:45;12.80;99.90
16140;DHT22;8175;49.326;12.690;2023-05-10T10:10:11;13.20;99.90
16140;DHT22;8175;49.326;12.690;2023-05-10T10:12:39;13.40;99.90
16140;DHT22;8175;49.326;12.690;2023-05-10T10:15:07;13.50;99.90
16140;DHT22;8175;49.326;12.690;2023-05-10T10:17:35;13.60;99.90
16140;DHT22;8175;49.326;12.690;2023-05-10T10:20:03;13.80;99.90
16140;DHT22;8175;49.326;12.690;2023-05-10T10:22:28;14.00;99.90
16140;DHT22;8175;49.326;12.690;2023-05-10T10:24:54;13.90;99.90
16140;DHT22;8175;49.326;12.690;2023-05-10T10:35:11;14.70;99.90
16140;DHT22;8175;49.326;12.690;2023-05-10T10:37:45;14.40;99.90
16140;DHT22;8175;49.326;12.690;2023-05-10T10:40:26;14.40;99.90
16140;DHT22;8175;49.326;12.690;2023-05-10T10:42:52;14.30;99.90
16140;DHT22;8175;49.326;12.690;2023-05-10T10:45:19;14.30;99.90
16140;DHT22;8175;49.326;12.690;2023-05-10T10:47:45;14.50;99.90
16140;DHT22;8175;49.326;12.690;2023-05-10T10:50:11;14.80;99.90
16140;DHT22;8175;49.326;12.690;2023-05-10T10:52:42;15.00;99.90
16140;DHT22;8175;49.326;12.690;2023-05-10T10:55:16;15.10;99.90
16140;DHT22;8175;49.326;12.690;2023-05-10T10:57:50;15.10;99.90
16140;DHT22;8175;49.326;12.690;2023-05-10T11:03:07;15.90;99.90
16140;DHT22;8175;49.326;12.690;2023-05-10T11:05:36;16.50;99.90
16140;DHT22;8175;49.326;12.690;2023-05-10T11:08:14;16.70;99.90
16140;DHT22;8175;49.326;12.690;2023-05-10T11:10:53;16.50;99.90
16140;DHT22;8175;49.326;12.690;2023-05-10T11:15:57;17.60;99.90
16140;DHT22;8175;49.326;12.690;2023-05-10T11:18:28;18.10;99.90
16140;DHT22;8175;49.326;12.690;2023-05-10T11:21:01;18.20;99.90
16140;DHT22;8175;49.326;12.690;2023-05-10T11:26:12;18.40;99.90
16140;DHT22;8175;49.326;12.690;2023-05-10T11:28:42;18.00;99.90
16140;DHT22;8175;49.326;12.690;2023-05-10T11:31:08;17.30;99.90
16140;DHT22;8175;49.326;12.690;2023-05-10T11:33:50;17.50;99.90
16140;DHT22;8175;49.326;12.690;2023-05-10T11:36:18;17.60;99.90
16140;DHT22;8175;49.326;12.690;2023-05-10T11:38:45;18.10;99.90
16140;DHT22;8175;49.326;12.690;2023-05-10T11:41:11;17.90;99.90
16140;DHT22;8175;49.326;12.690;2023-05-10T11:43:41;17.80;99.90
16140;DHT22;8175;49.326;12.690;2023-05-10T11:46:09;17.70;99.90
16140;DHT22;8175;49.326;12.690;2023-05-10T11:48:35;17.50;99.90
16140;DHT22;8175;49.326;12.690;2023-05-10T11:51:02;17.40;99.90
16140;DHT22;8175;49.326;12.690;2023-05-10T11:53:30;16.90;99.90
16140;DHT22;8175;49.326;12.690;2023-05-10T11:56:03;16.00;99.90
16140;DHT22;8175;49.326;12.690;2023-05-10T11:58:30;16.00;99.90
16140;DHT22;8175;49.326;12.690;2023-05-10T12:00:56;15.80;99.90
16140;DHT22;8175;49.326;12.690;2023-05-10T12:03:21;15.60;99.90
16140;DHT22;8175;49.326;12.690;2023-05-10T12:05:47;15.70;99.90
16140;DHT22;8175;49.326;12.690;2023-05-10T12:08:14;15.70;99.90
16140;DHT22;8175;49.326;12.690;2023-05-10T12:10:40;15.60;99.90
16140;DHT22;8175;49.326;12.690;2023-05-10T12:13:11;15.50;99.90
16140;DHT22;8175;49.326;12.690;2023-05-10T12:15:38;15.20;99.90
16140;DHT22;8175;49.326;12.690;2023-05-10T12:18:04;15.10;99.90
16140;DHT22;8175;49.326;12.690;2023-05-10T12:20:30;15.30;99.90
16140;DHT22;8175;49.326;12.690;2023-05-10T12:22:57;15.20;99.90
16140;DHT22;8175;49.326;12.690;2023-05-10T12:25:29;15.10;99.90
16140;DHT22;8175;49.326;12.690;2023-05-10T12:27:58;15.40;99.90
16140;DHT22;8175;49.326;12.690;2023-05-10T12:30:27;15.90;99.90
16140;DHT22;8175;49.326;12.690;2023-05-10T12:32:54;16.00;99.90
16140;DHT22;8175;49.326;12.690;2023-05-10T12:35:24;16.30;99.90
16140;DHT22;8175;49.326;12.690;2023-05-10T12:37:53;16.30;99.90
16140;DHT22;8175;49.326;12.690;2023-05-10T12:40:18;16.50;99.90
16140;DHT22;8175;49.326;12.690;2023-05-10T12:42:44;16.50;99.90
16140;DHT22;8175;49.326;12.690;2023-05-10T12:45:10;16.60;99.90
16140;DHT22;8175;49.326;12.690;2023-05-10T12:47:37;16.20;99.90
16140;DHT22;8175;49.326;12.690;2023-05-10T12:50:03;16.60;99.90
16140;DHT22;8175;49.326;12.690;2023-05-10T12:52:30;17.10;99.90
16140;DHT22;8175;49.326;12.690;2023-05-10T12:54:58;17.00;99.90
16140;DHT22;8175;49.326;12.690;2023-05-10T12:57:24;17.10;99.90
16140;DHT22;8175;49.326;12.690;2023-05-10T12:59:50;17.50;99.90
16140;DHT22;8175;49.326;12.690;2023-05-10T13:02:16;17.20;99.90
16140;DHT22;8175;49.326;12.690;2023-05-10T13:04:44;17.10;99.90
16140;DHT22;8175;49.326;12.690;2023-05-10T13:07:10;17.20;99.90
16140;DHT22;8175;49.326;12.690;2023-05-10T13:09:36;17.10;99.90
16140;DHT22;8175;49.326;12.690;2023-05-10T13:12:01;17.50;99.90
16140;DHT22;8175;49.326;12.690;2023-05-10T13:14:27;17.50;99.90
16140;DHT22;8175;49.326;12.690;2023-05-10T13:16:53;17.90;99.90
16140;DHT22;8175;49.326;12.690;2023-05-10T13:19:19;18.10;99.90
16140;DHT22;8175;49.326;12.690;2023-05-10T13:21:45;18.00;99.90
16140;DHT22;8175;49.326;12.690;2023-05-10T13:24:11;18.30;99.90
16140;DHT22;8175;49.326;12.690;2023-05-10T13:26:40;18.50;99.90
16140;DHT22;8175;49.326;12.690;2023-05-10T13:29:06;18.30;99.90
16140;DHT22;8175;49.326;12.690;2023-05-10T13:31:32;18.40;99.90
16140;DHT22;8175;49.326;12.690;2023-05-10T13:33:57;18.00;99.90
16140;DHT22;8175;49.326;12.690;2023-05-10T13:36:23;17.20;99.90
16140;DHT22;8175;49.326;12.690;2023-05-10T13:38:49;17.20;99.90
16140;DHT22;8175;49.326;12.690;2023-05-10T13:41:14;17.40;99.90
16140;DHT22;8175;49.326;12.690;2023-05-10T13:43:40;17.50;99.90
16140;DHT22;8175;49.326;12.690;2023-05-10T13:46:05;17.40;99.90
16140;DHT22;8175;49.326;12.690;2023-05-10T13:48:31;17.50;99.90
16140;DHT22;8175;49.326;12.690;2023-05-10T13:50:57;17.30;99.90
16140;DHT22;8175;49.326;12.690;2023-05-10T13:53:22;16.90;99.90
16140;DHT22;8175;49.326;12.690;2023-05-10T13:55:48;16.70;99.90
16140;DHT22;8175;49.326;12.690;2023-05-10T13:58:14;16.80;99.90
16140;DHT22;8175;49.326;12.690;2023-05-10T14:00:39;17.20;99.90
16140;DHT22;8175;49.326;12.690;2023-05-10T14:03:05;17.50;99.90
16140;DHT22;8175;49.326;12.690;2023-05-10T14:05:32;17.30;99.90
16140;DHT22;8175;49.326;12.690;2023-05-10T14:07:58;17.70;99.90
16140;DHT22;8175;49.326;12.690;2023-05-10T14:10:23;17.40;99.90
16140;DHT22;8175;49.326;12.690;2023-05-10T14:12:50;17.70;99.90
16140;DHT22;8175;49.326;12.690;2023-05-10T14:15:15;18.00;99.90
16140;DHT22;8175;49.326;12.690;2023-05-10T14:17:41;18.10;99.90
16140;DHT22;8175;49.326;12.690;2023-05-10T14:20:07;17.70;99.90
16140;DHT22;8175;49.326;12.690;2023-05-10T14:22:34;17.90;99.90
16140;DHT22;8175;49.326;12.690;2023-05-10T14:25:00;18.10;99.90
16140;DHT22;8175;49.326;12.690;2023-05-10T14:27:25;17.60;99.90
16140;DHT22;8175;49.326;12.690;2023-05-10T14:29:51;17.60;99.90
16140;DHT22;8175;49.326;12.690;2023-05-10T14:32:17;17.20;99.90
16140;DHT22;8175;49.326;12.690;2023-05-10T14:34:42;17.10;99.90
16140;DHT22;8175;49.326;12.690;2023-05-10T14:37:10;17.10;99.90
16140;DHT22;8175;49.326;12.690;2023-05-10T14:39:36;17.10;99.90
16140;DHT22;8175;49.326;12.690;2023-05-10T14:42:02;16.90;99.90
16140;DHT22;8175;49.326;12.690;2023-05-10T14:44:28;16.70;99.90
16140;DHT22;8175;49.326;12.690;2023-05-10T14:46:53;16.50;99.90
16140;DHT22;8175;49.326;12.690;2023-05-10T14:49:19;16.30;99.90
16140;DHT22;8175;49.326;12.690;2023-05-10T14:51:48;16.20;99.90
16140;DHT22;8175;49.326;12.690;2023-05-10T14:54:13;16.00;99.90
16140;DHT22;8175;49.326;12.690;2023-05-10T14:56:39;15.90;99.90
16140;DHT22;8175;49.326;12.690;2023-05-10T14:59:07;15.80;99.90
16140;DHT22;8175;49.326;12.690;2023-05-10T15:01:32;15.70;99.90
16140;DHT22;8175;49.326;12.690;2023-05-10T15:04:00;15.70;99.90
16140;DHT22;8175;49.326;12.690;2023-05-10T15:06:35;15.60;99.90
16140;DHT22;8175;49.326;12.690;2023-05-10T15:09:01;15.50;99.90
16140;DHT22;8175;49.326;12.690;2023-05-10T15:11:28;15.40;99.90
16140;DHT22;8175;49.326;12.690;2023-05-10T15:13:54;15.30;99.90
16140;DHT22;8175;49.326;12.690;2023-05-10T15:16:20;15.20;99.90
16140;DHT22;8175;49.326;12.690;2023-05-10T15:18:46;15.00;99.90
16140;DHT22;8175;49.326;12.690;2023-05-10T15:21:12;14.90;99.90
16140;DHT22;8175;49.326;12.690;2023-05-10T15:23:38;15.00;99.90
16140;DHT22;8175;49.326;12.690;2023-05-10T15:26:03;14.90;99.90
16140;DHT22;8175;49.326;12.690;2023-05-10T15:28:29;14.90;99.90
16140;DHT22;8175;49.326;12.690;2023-05-10T15:30:55;14.70;99.90
16140;DHT22;8175;49.326;12.690;2023-05-10T15:33:21;14.60;99.90
16140;DHT22;8175;49.326;12.690;2023-05-10T15:35:47;14.40;99.90
16140;DHT22;8175;49.326;12.690;2023-05-10T15:38:13;14.20;99.90
16140;DHT22;8175;49.326;12.690;2023-05-10T15:40:38;14.10;99.90
16140;DHT22;8175;49.326;12.690;2023-05-10T15:43:04;13.90;99.90
16140;DHT22;8175;49.326;12.690;2023-05-10T15:45:30;13.70;99.90
16140;DHT22;8175;49.326;12.690;2023-05-10T15:47:56;13.80;99.90
16140;DHT22;8175;49.326;12.690;2023-05-10T15:50:22;13.90;99.90
16140;DHT22;8175;49.326;12.690;2023-05-10T15:52:48;14.00;99.90
16140;DHT22;8175;49.326;12.690;2023-05-10T15:55:14;14.20;99.90
16140;DHT22;8175;49.326;12.690;2023-05-10T15:57:41;14.30;99.90
16140;DHT22;8175;49.326;12.690;2023-05-10T16:00:08;14.40;99.90
16140;DHT22;8175;49.326;12.690;2023-05-10T16:02:34;14.60;99.90
16140;DHT22;8175;49.326;12.690;2023-05-10T16:05:00;14.70;99.90
16140;DHT22;8175;49.326;12.690;2023-05-10T16:07:26;14.60;99.90
16140;DHT22;8175;49.326;12.690;2023-05-10T16:09:51;14.60;99.90
16140;DHT22;8175;49.326;12.690;2023-05-10T16:12:17;14.40;99.90
16140;DHT22;8175;49.326;12.690;2023-05-10T16:14:43;14.30;99.90
16140;DHT22;8175;49.326;12.690;2023-05-10T16:17:08;14.00;99.90
16140;DHT22;8175;49.326;12.690;2023-05-10T16:19:34;13.80;99.90
16140;DHT22;8175;49.326;12.690;2023-05-10T16:21:59;13.60;99.90
16140;DHT22;8175;49.326;12.690;2023-05-10T16:24:25;13.40;99.90
16140;DHT22;8175;49.326;12.690;2023-05-10T16:26:51;13.20;99.90
16140;DHT22;8175;49.326;12.690;2023-05-10T16:29:17;13.00;99.90
16140;DHT22;8175;49.326;12.690;2023-05-10T16:31:42;12.90;99.90
16140;DHT22;8175;49.326;12.690;2023-05-10T16:34:08;12.90;99.90
16140;DHT22;8175;49.326;12.690;2023-05-10T16:36:34;12.80;99.90
16140;DHT22;8175;49.326;12.690;2023-05-10T16:38:59;12.70;99.90
16140;DHT22;8175;49.326;12.690;2023-05-10T16:41:25;12.70;99.90
16140;DHT22;8175;49.326;12.690;2023-05-10T16:43:51;12.50;99.90
16140;DHT22;8175;49.326;12.690;2023-05-10T16:46:16;12.40;99.90
16140;DHT22;8175;49.326;12.690;2023-05-10T16:48:42;12.30;99.90
16140;DHT22;8175;49.326;12.690;2023-05-10T16:51:08;12.30;99.90
16140;DHT22;8175;49.326;12.690;2023-05-10T16:53:34;12.30;99.90
16140;DHT22;8175;49.326;12.690;2023-05-10T16:56:00;12.20;99.90
16140;DHT22;8175;49.326;12.690;2023-05-10T16:58:26;12.30;99.90
16140;DHT22;8175;49.326;12.690;2023-05-10T17:00:51;12.20;99.90
16140;DHT22;8175;49.326;12.690;2023-05-10T17:03:17;12.20;99.90
16140;DHT22;8175;49.326;12.690;2023-05-10T17:05:43;12.20;99.90
16140;DHT22;8175;49.326;12.690;2023-05-10T17:08:08;12.10;99.90
16140;DHT22;8175;49.326;12.690;2023-05-10T17:10:35;12.10;99.90
16140;DHT22;8175;49.326;12.690;2023-05-10T17:13:00;12.00;99.90
16140;DHT22;8175;49.326;12.690;2023-05-10T17:15:27;12.00;99.90
16140;DHT22;8175;49.326;12.690;2023-05-10T17:17:53;11.90;99.90
16140;DHT22;8175;49.326;12.690;2023-05-10T17:20:19;11.90;99.90
16140;DHT22;8175;49.326;12.690;2023-05-10T17:22:45;11.90;99.90
16140;DHT22;8175;49.326;12.690;2023-05-10T17:25:10;11.80;99.90
16140;DHT22;8175;49.326;12.690;2023-05-10T17:27:36;11.80;99.90
16140;DHT22;8175;49.326;12.690;2023-05-10T17:30:02;11.80;99.90
16140;DHT22;8175;49.326;12.690;2023-05-10T17:32:27;11.80;99.90
16140;DHT22;8175;49.326;12.690;2023-05-10T17:34:53;11.80;99.90
16140;DHT22;8175;49.326;12.690;2023-05-10T17:37:19;11.90;99.90
16140;DHT22;8175;49.326;12.690;2023-05-10T17:39:44;11.90;99.90
16140;DHT22;8175;49.326;12.690;2023-05-10T17:42:10;11.90;99.90
16140;DHT22;8175;49.326;12.690;2023-05-10T17:44:37;11.90;99.90
16140;DHT22;8175;49.326;12.690;2023-05-10T17:47:02;11.90;99.90
16140;DHT22;8175;49.326;12.690;2023-05-10T17:49:28;11.90;99.90
16140;DHT22;8175;49.326;12.690;2023-05-10T17:51:53;12.00;99.90
16140;DHT22;8175;49.326;12.690;2023-05-10T17:54:19;12.00;99.90
16140;DHT22;8175;49.326;12.690;2023-05-10T17:56:45;11.90;99.90
16140;DHT22;8175;49.326;12.690;2023-05-10T17:59:10;11.90;99.90
16140;DHT22;8175;49.326;12.690;2023-05-10T18:01:36;12.00;99.90
16140;DHT22;8175;49.326;12.690;2023-05-10T18:04:01;11.90;99.90
16140;DHT22;8175;49.326;12.690;2023-05-10T18:06:27;11.90;99.90
16140;DHT22;8175;49.326;12.690;2023-05-10T18:08:53;11.90;99.90
16140;DHT22;8175;49.326;12.690;2023-05-10T18:11:19;11.80;99.90
16140;DHT22;8175;49.326;12.690;2023-05-10T18:13:44;11.80;99.90
16140;DHT22;8175;49.326;12.690;2023-05-10T18:16:10;11.80;99.90
16140;DHT22;8175;49.326;12.690;2023-05-10T18:18:37;11.70;99.90
16140;DHT22;8175;49.326;12.690;2023-05-10T18:21:04;11.70;99.90
16140;DHT22;8175;49.326;12.690;2023-05-10T18:23:30;11.70;99.90
16140;DHT22;8175;49.326;12.690;2023-05-10T18:25:55;11.60;99.90
16140;DHT22;8175;49.326;12.690;2023-05-10T18:28:22;11.50;99.90
16140;DHT22;8175;49.326;12.690;2023-05-10T18:30:49;11.50;99.90
16140;DHT22;8175;49.326;12.690;2023-05-10T18:33:15;11.50;99.90
16140;DHT22;8175;49.326;12.690;2023-05-10T18:35:41;11.40;99.90
16140;DHT22;8175;49.326;12.690;2023-05-10T18:38:06;11.40;99.90
16140;DHT22;8175;49.326;12.690;2023-05-10T18:40:34;11.30;99.90
16140;DHT22;8175;49.326;12.690;2023-05-10T18:43:01;11.30;99.90
16140;DHT22;8175;49.326;12.690;2023-05-10T18:45:27;11.30;99.90
16140;DHT22;8175;49.326;12.690;2023-05-10T18:47:53;11.30;99.90
16140;DHT22;8175;49.326;12.690;2023-05-10T18:50:18;11.30;99.90
16140;DHT22;8175;49.326;12.690;2023-05-10T18:52:44;11.30;99.90
16140;DHT22;8175;49.326;12.690;2023-05-10T18:55:10;11.30;99.90
16140;DHT22;8175;49.326;12.690;2023-05-10T18:57:36;11.30;99.90
16140;DHT22;8175;49.326;12.690;2023-05-10T19:00:07;11.20;99.90
16140;DHT22;8175;49.326;12.690;2023-05-10T19:02:40;11.30;99.90